createdAt,value
2019-05-02T00:01:13.172Z,8.82
2019-05-02T00:03:43.404Z,8.79
2019-05-02T00:06:14.518Z,8.79
2019-05-02T00:08:44.562Z,8.78
2019-05-02T00:11:15.686Z,8.80
2019-05-02T00:13:45.626Z,8.85
2019-05-02T00:16:15.631Z,8.89
2019-05-02T00:18:45.811Z,8.97
2019-05-02T00:21:16.437Z,9.06
2019-05-02T00:23:46.414Z,9.15
2019-05-02T00:26:16.377Z,9.29
2019-05-02T00:28:48.018Z,9.38
2019-05-02T00:31:21.288Z,9.37
2019-05-02T00:33:51.696Z,9.50
2019-05-02T00:36:21.600Z,9.56
2019-05-02T00:38:51.582Z,9.58
2019-05-02T00:41:22.724Z,9.61
2019-05-02T00:43:53.389Z,9.64
2019-05-02T00:46:23.429Z,9.60
2019-05-02T00:48:59.644Z,9.64
2019-05-02T00:51:28.894Z,9.59
2019-05-02T00:53:59.413Z,9.56
2019-05-02T00:56:29.207Z,9.53
2019-05-02T00:59:02.238Z,9.47
2019-05-02T01:02:00.102Z,9.42
2019-05-02T01:04:32.941Z,9.43
2019-05-02T01:07:04.571Z,9.39
2019-05-02T01:09:34.689Z,9.40
2019-05-02T01:12:08.488Z,9.39
2019-05-02T01:14:36.183Z,9.41
2019-05-02T01:17:06.235Z,9.42
2019-05-02T01:19:36.471Z,9.38
2019-05-02T01:22:10.712Z,9.38
2019-05-02T01:24:39.887Z,9.37
2019-05-02T01:27:16.279Z,9.35
2019-05-02T01:30:01.708Z,9.39
2019-05-02T01:32:51.758Z,9.31
2019-05-02T01:35:48.215Z,9.33
2019-05-02T01:38:21.202Z,9.33
2019-05-02T01:40:53.642Z,9.34
2019-05-02T01:43:26.129Z,9.27
2019-05-02T01:45:56.103Z,9.27
2019-05-02T01:48:26.773Z,9.29
2019-05-02T01:50:56.610Z,9.25
2019-05-02T01:53:29.442Z,9.24
2019-05-02T01:55:59.369Z,9.27
2019-05-02T01:58:29.629Z,9.27
2019-05-02T02:00:59.450Z,9.31
2019-05-02T02:03:29.278Z,9.34
2019-05-02T02:06:02.882Z,9.36
2019-05-02T02:08:32.554Z,9.40
2019-05-02T02:11:04.042Z,9.39
2019-05-02T02:13:36.559Z,9.38
2019-05-02T02:16:05.975Z,9.39
2019-05-02T02:18:40.453Z,9.33
2019-05-02T02:21:33.063Z,9.29
2019-05-02T02:24:07.680Z,9.31
2019-05-02T02:26:36.677Z,9.27
2019-05-02T02:29:07.893Z,9.18
2019-05-02T02:31:39.866Z,8.97
2019-05-02T02:34:09.644Z,9.05
2019-05-02T02:36:39.543Z,9.05
2019-05-02T02:39:14.478Z,9.04
2019-05-02T02:41:45.229Z,9.02
2019-05-02T02:44:22.400Z,9.05
2019-05-02T02:46:52.877Z,9.08
2019-05-02T02:49:24.505Z,9.04
2019-05-02T02:51:58.269Z,9.03
2019-05-02T02:54:26.390Z,9.04
2019-05-02T02:56:56.241Z,9.07
2019-05-02T02:59:28.032Z,9.11
2019-05-02T03:02:09.104Z,9.14
2019-05-02T03:04:30.043Z,9.10
2019-05-02T03:07:00.741Z,9.07
2019-05-02T03:09:30.627Z,9.04
2019-05-02T03:12:18.596Z,9.13
2019-05-02T03:14:53.517Z,9.10
2019-05-02T03:17:26.571Z,9.07
2019-05-02T03:20:01.115Z,9.04
2019-05-02T03:22:26.883Z,9.01
2019-05-02T03:24:57.563Z,9.05
2019-05-02T03:27:29.768Z,9.08
2019-05-02T03:29:59.429Z,9.13
2019-05-02T03:32:34.403Z,9.14
2019-05-02T03:35:01.655Z,9.11
2019-05-02T03:37:32.927Z,9.06
2019-05-02T03:40:02.777Z,9.04
2019-05-02T03:42:43.873Z,9.07
2019-05-02T03:45:05.370Z,9.10
2019-05-02T03:47:43.016Z,9.05
2019-05-02T03:50:09.915Z,9.00
2019-05-02T03:52:43.928Z,9.01
2019-05-02T03:55:12.555Z,8.96
2019-05-02T03:57:42.983Z,8.95
2019-05-02T04:00:20.974Z,8.77
2019-05-02T04:02:45.673Z,8.93
2019-05-02T04:05:16.063Z,8.97
2019-05-02T04:07:47.453Z,8.96
2019-05-02T04:10:35.530Z,8.96
2019-05-02T04:13:05.658Z,9.00
2019-05-02T04:15:37.580Z,9.01
2019-05-02T04:18:08.395Z,8.99
2019-05-02T04:20:43.642Z,8.97
2019-05-02T04:23:12.450Z,9.02
2019-05-02T04:25:42.809Z,9.03
2019-05-02T04:28:14.356Z,9.02
2019-05-02T04:30:45.137Z,8.99
2019-05-02T04:33:16.951Z,9.00
2019-05-02T04:35:46.928Z,9.06
2019-05-02T04:38:21.268Z,9.02
2019-05-02T04:40:50.026Z,9.01
2019-05-02T04:43:20.839Z,8.99
2019-05-02T04:45:56.083Z,9.02
2019-05-02T04:48:22.298Z,9.05
2019-05-02T04:50:59.675Z,9.02
2019-05-02T04:53:25.918Z,9.04
2019-05-02T04:56:01.610Z,9.02
2019-05-02T04:58:33.480Z,9.04
2019-05-02T05:01:01.927Z,9.07
2019-05-02T05:03:31.392Z,9.07
2019-05-02T05:06:07.087Z,9.07
2019-05-02T05:08:33.789Z,9.13
2019-05-02T05:11:04.012Z,9.23
2019-05-02T05:13:33.895Z,9.24
2019-05-02T05:16:08.599Z,9.18
2019-05-02T05:18:37.776Z,9.15
2019-05-02T05:21:10.572Z,9.26
2019-05-02T05:24:10.327Z,9.22
2019-05-02T05:26:43.016Z,9.35
2019-05-02T05:29:14.001Z,9.26
2019-05-02T05:31:44.594Z,9.22
2019-05-02T05:34:14.477Z,9.30
2019-05-02T05:36:44.275Z,9.37
2019-05-02T05:39:14.168Z,9.34
2019-05-02T05:41:50.853Z,9.37
2019-05-02T05:44:18.044Z,9.41
2019-05-02T05:46:49.467Z,9.38
2019-05-02T05:49:21.728Z,9.40
2019-05-02T05:51:54.397Z,9.41
2019-05-02T05:54:22.398Z,9.39
2019-05-02T05:56:52.527Z,9.40
2019-05-02T05:59:27.348Z,9.43
2019-05-02T06:01:53.941Z,9.44
2019-05-02T06:04:30.131Z,9.51
2019-05-02T06:06:59.575Z,9.52
2019-05-02T06:09:31.270Z,9.58
2019-05-02T06:11:59.629Z,9.62
2019-05-02T06:14:29.410Z,9.69
2019-05-02T06:16:59.274Z,9.69
2019-05-02T06:19:30.056Z,9.73
2019-05-02T06:22:00.644Z,9.78
2019-05-02T06:24:33.630Z,9.86
2019-05-02T06:27:02.534Z,9.83
2019-05-02T06:29:32.451Z,9.69
2019-05-02T06:32:03.536Z,9.74
2019-05-02T06:34:33.442Z,9.80
2019-05-02T06:37:03.278Z,9.79
2019-05-02T06:39:33.352Z,9.82
2019-05-02T06:42:03.530Z,9.86
2019-05-02T06:44:33.923Z,9.85
2019-05-02T06:47:04.487Z,9.91
2019-05-02T06:49:34.666Z,9.94
2019-05-02T06:52:06.463Z,9.97
2019-05-02T06:54:37.110Z,9.93
2019-05-02T06:57:06.932Z,9.87
2019-05-02T06:59:37.069Z,9.92
2019-05-02T07:02:07.680Z,9.93
2019-05-02T07:04:37.802Z,9.89
2019-05-02T07:07:08.010Z,9.92
2019-05-02T07:09:40.822Z,10.00
2019-05-02T07:12:14.579Z,10.04
2019-05-02T07:14:41.346Z,10.07
2019-05-02T07:17:32.119Z,10.07
2019-05-02T07:20:04.077Z,10.09
2019-05-02T07:22:38.614Z,9.95
2019-05-02T07:25:08.716Z,9.88
2019-05-02T07:27:39.316Z,9.92
2019-05-02T07:30:12.117Z,9.98
2019-05-02T07:32:42.039Z,10.07
2019-05-02T07:35:12.310Z,10.17
2019-05-02T07:37:44.048Z,10.25
2019-05-02T07:40:16.997Z,10.22
2019-05-02T07:42:46.258Z,10.17
2019-05-02T07:45:16.579Z,10.15
2019-05-02T07:47:46.451Z,10.16
2019-05-02T07:50:16.387Z,10.21
2019-05-02T07:52:46.254Z,10.22
2019-05-02T07:55:16.372Z,10.30
2019-05-02T07:57:46.116Z,10.35
2019-05-02T08:00:17.870Z,10.38
2019-05-02T08:02:47.740Z,10.43
2019-05-02T08:05:22.242Z,10.34
2019-05-02T08:07:53.495Z,10.33
2019-05-02T08:10:23.986Z,10.29
2019-05-02T08:12:53.358Z,10.23
2019-05-02T08:15:24.687Z,10.29
2019-05-02T08:17:55.216Z,10.24
2019-05-02T08:20:25.577Z,10.30
2019-05-02T08:22:55.688Z,10.37
2019-05-02T08:25:25.504Z,10.32
2019-05-02T08:28:04.566Z,10.41
2019-05-02T08:30:40.633Z,10.49
2019-05-02T08:33:09.620Z,10.51
2019-05-02T08:35:39.579Z,10.55
2019-05-02T08:38:12.487Z,10.62
2019-05-02T08:40:42.447Z,10.71
2019-05-02T08:43:12.629Z,10.85
2019-05-02T08:45:44.026Z,10.78
2019-05-02T08:48:14.198Z,10.84
2019-05-02T08:50:44.524Z,10.86
2019-05-02T08:53:19.977Z,10.82
2019-05-02T08:55:46.712Z,10.85
2019-05-02T08:58:16.696Z,10.93
2019-05-02T09:00:47.282Z,10.93
2019-05-02T09:03:17.718Z,10.99
2019-05-02T09:05:47.712Z,11.06
2019-05-02T09:08:17.552Z,11.06
2019-05-02T09:10:47.407Z,11.06
2019-05-02T09:13:26.457Z,11.10
2019-05-02T09:15:51.529Z,11.20
2019-05-02T09:18:24.015Z,11.23
2019-05-02T09:20:56.610Z,11.28
2019-05-02T09:23:27.490Z,11.32
2019-05-02T09:25:56.960Z,11.42
2019-05-02T09:28:27.110Z,11.48
2019-05-02T09:30:57.553Z,11.50
2019-05-02T09:33:28.647Z,11.50
2019-05-02T09:35:58.571Z,11.57
2019-05-02T09:38:28.449Z,11.69
2019-05-02T09:40:58.216Z,11.76
2019-05-02T09:43:29.388Z,11.85
2019-05-02T09:45:59.759Z,11.99
2019-05-02T09:48:29.629Z,12.02
2019-05-02T09:51:04.628Z,12.04
2019-05-02T09:53:32.414Z,12.00
2019-05-02T09:56:02.703Z,12.07
2019-05-02T09:58:32.519Z,12.04
2019-05-02T10:01:11.884Z,11.99
2019-05-02T10:03:42.389Z,11.96
2019-05-02T10:06:13.949Z,11.92
2019-05-02T10:08:46.565Z,11.90
2019-05-02T10:11:17.023Z,11.95
2019-05-02T10:13:48.296Z,12.00
2019-05-02T10:16:23.520Z,12.16
2019-05-02T10:18:52.310Z,12.29
2019-05-02T10:21:22.994Z,12.33
2019-05-02T10:23:58.976Z,12.34
2019-05-02T10:26:25.039Z,12.46
2019-05-02T10:28:55.099Z,12.70
2019-05-02T10:31:27.529Z,12.80
2019-05-02T10:33:56.643Z,12.86
2019-05-02T10:36:27.720Z,13.01
2019-05-02T10:38:59.376Z,12.99
2019-05-02T10:41:31.754Z,13.07
2019-05-02T10:44:02.201Z,13.29
2019-05-02T10:46:38.065Z,13.27
2019-05-02T10:49:14.644Z,13.26
2019-05-02T10:51:49.409Z,13.48
2019-05-02T10:54:16.488Z,13.60
2019-05-02T10:56:46.508Z,13.67
2019-05-02T10:59:16.660Z,13.72
2019-05-02T11:02:02.874Z,13.87
2019-05-02T11:04:34.370Z,14.05
2019-05-02T11:07:04.666Z,14.11
2019-05-02T11:09:34.540Z,14.21
2019-05-02T11:12:06.256Z,14.06
2019-05-02T11:14:44.254Z,13.88
2019-05-02T11:17:43.462Z,13.86
2019-05-02T11:20:13.975Z,14.01
2019-05-02T11:22:44.023Z,14.00
2019-05-02T11:25:14.367Z,13.97
2019-05-02T11:27:44.224Z,14.17
2019-05-02T11:30:16.741Z,14.29
2019-05-02T11:32:47.622Z,14.23
2019-05-02T11:35:17.826Z,14.27
2019-05-02T11:37:47.644Z,14.16
2019-05-02T11:40:18.324Z,14.17
2019-05-02T11:42:48.647Z,14.29
2019-05-02T11:45:18.575Z,14.42
2019-05-02T11:47:48.368Z,14.41
2019-05-02T11:50:18.343Z,14.63
2019-05-02T11:52:48.661Z,14.75
2019-05-02T11:55:19.087Z,14.82
2019-05-02T11:57:52.346Z,14.79
2019-05-02T12:00:22.403Z,14.83
2019-05-02T12:03:02.210Z,15.00
2019-05-02T12:05:39.176Z,15.20
2019-05-02T12:08:09.499Z,15.52
2019-05-02T12:10:39.618Z,15.84
2019-05-02T12:13:11.916Z,16.07
2019-05-02T12:15:44.038Z,16.01
2019-05-02T12:18:12.941Z,15.97
2019-05-02T12:20:42.947Z,15.86
2019-05-02T12:23:13.192Z,15.85
2019-05-02T12:25:43.577Z,16.09
2019-05-02T12:28:13.463Z,16.23
2019-05-02T12:30:43.786Z,16.19
2019-05-02T12:33:14.212Z,15.94
2019-05-02T12:35:44.519Z,15.77
2019-05-02T12:38:14.417Z,15.72
2019-05-02T12:40:44.407Z,15.73
2019-05-02T12:43:14.376Z,15.73
2019-05-02T12:45:44.331Z,15.74
2019-05-02T12:48:14.196Z,15.82
2019-05-02T12:50:44.206Z,15.82
2019-05-02T12:53:15.693Z,15.57
2019-05-02T12:55:45.711Z,15.43
2019-05-02T12:58:15.565Z,15.33
2019-05-02T13:00:45.722Z,15.17
2019-05-02T13:03:36.388Z,15.09
2019-05-02T13:06:06.579Z,15.02
2019-05-02T13:08:48.994Z,14.93
2019-05-02T13:11:46.859Z,14.94
2019-05-02T13:14:20.074Z,14.99
2019-05-02T13:16:55.518Z,15.00
2019-05-02T13:19:36.520Z,15.03
2019-05-02T13:22:02.450Z,15.05
2019-05-02T13:24:35.468Z,15.13
2019-05-02T13:27:07.595Z,15.10
2019-05-02T13:29:38.370Z,15.20
2019-05-02T13:32:18.942Z,15.29
2019-05-02T13:35:22.156Z,15.41
2019-05-02T13:37:53.501Z,15.49
2019-05-02T13:40:27.214Z,15.44
2019-05-02T13:42:57.000Z,15.32
2019-05-02T13:45:44.606Z,15.21
2019-05-02T13:48:14.404Z,15.11
2019-05-02T13:50:44.256Z,14.96
2019-05-02T13:53:14.213Z,14.85
2019-05-02T13:55:53.447Z,14.78
2019-05-02T13:58:29.066Z,14.73
2019-05-02T14:03:28.434Z,14.57
2019-05-02T14:05:58.293Z,14.26
2019-05-02T14:08:46.481Z,14.21
2019-05-02T14:11:34.005Z,14.02
2019-05-02T14:14:06.033Z,13.80
2019-05-02T14:16:36.041Z,13.55
2019-05-02T14:19:07.107Z,13.84
2019-05-02T14:21:37.193Z,13.90
2019-05-02T14:24:07.231Z,13.92
2019-05-02T14:26:38.258Z,13.99
2019-05-02T14:29:12.613Z,13.86
2019-05-02T14:31:39.885Z,13.77
2019-05-02T14:34:35.572Z,13.75
2019-05-02T14:37:05.507Z,13.69
2019-05-02T14:39:36.199Z,13.56
2019-05-02T14:42:07.541Z,13.52
2019-05-02T14:45:01.220Z,13.51
2019-05-02T14:47:10.103Z,13.56
2019-05-02T14:49:42.917Z,13.68
2019-05-02T14:52:14.300Z,13.64
2019-05-02T14:54:47.880Z,13.63
2019-05-02T14:57:25.511Z,13.62
2019-05-02T14:59:50.216Z,13.64
2019-05-02T15:02:47.558Z,13.70
2019-05-02T15:05:12.948Z,13.81
2019-05-02T15:07:43.046Z,13.77
2019-05-02T15:10:14.399Z,13.73
2019-05-02T15:12:44.387Z,13.82
2019-05-02T15:15:14.404Z,13.95
2019-05-02T15:17:44.643Z,14.20
2019-05-02T15:20:15.362Z,14.41
2019-05-02T15:22:45.515Z,14.47
2019-05-02T15:25:17.926Z,14.35
2019-05-02T15:27:49.995Z,14.23
2019-05-02T15:30:19.505Z,14.11
2019-05-02T15:33:02.781Z,14.08
2019-05-02T15:35:57.354Z,14.09
2019-05-02T15:38:28.224Z,14.11
2019-05-02T15:40:59.427Z,14.05
2019-05-02T15:43:31.680Z,13.86
2019-05-02T15:46:02.088Z,13.74
2019-05-02T15:48:33.133Z,13.62
2019-05-02T15:51:06.122Z,13.51
2019-05-02T15:53:48.475Z,13.55
2019-05-02T15:56:20.285Z,13.58
2019-05-02T15:58:48.093Z,13.50
2019-05-02T16:01:36.693Z,13.55
2019-05-02T16:04:08.980Z,13.63
2019-05-02T16:06:38.870Z,13.65
2019-05-02T16:09:09.358Z,13.62
2019-05-02T16:11:43.314Z,13.61
2019-05-02T16:14:12.907Z,13.58
2019-05-02T16:16:45.217Z,13.62
2019-05-02T16:19:23.162Z,13.67
2019-05-02T16:21:59.555Z,13.62
2019-05-02T16:24:29.370Z,13.55
2019-05-02T16:26:59.182Z,13.47
2019-05-02T16:29:29.509Z,13.40
2019-05-02T16:32:18.355Z,13.28
2019-05-02T16:34:56.425Z,13.27
2019-05-02T16:37:26.490Z,13.22
2019-05-02T16:39:56.550Z,13.09
2019-05-02T16:42:26.361Z,13.04
2019-05-02T16:44:56.607Z,13.04
2019-05-02T16:47:26.491Z,13.07
2019-05-02T16:49:56.674Z,13.11
2019-05-02T16:52:27.062Z,13.13
2019-05-02T16:54:56.941Z,13.09
2019-05-02T16:57:27.200Z,13.11
2019-05-02T17:00:01.544Z,13.05
2019-05-02T17:02:29.258Z,13.08
2019-05-02T17:05:00.258Z,13.17
2019-05-02T17:08:10.586Z,13.25
2019-05-02T17:10:47.373Z,13.30
2019-05-02T17:13:14.524Z,13.35
2019-05-02T17:15:44.366Z,13.37
2019-05-02T17:18:17.885Z,13.35
2019-05-02T17:20:46.910Z,13.36
2019-05-02T17:23:17.661Z,13.34
2019-05-02T17:25:47.587Z,13.32
2019-05-02T17:28:17.639Z,13.33
2019-05-02T17:30:47.493Z,13.24
2019-05-02T17:33:17.488Z,13.14
2019-05-02T17:35:52.314Z,13.06
2019-05-02T17:38:27.907Z,12.96
2019-05-02T17:40:54.132Z,12.86
2019-05-02T17:43:23.050Z,12.84
2019-05-02T17:45:52.970Z,12.85
2019-05-02T17:48:23.120Z,12.88
2019-05-02T17:51:08.958Z,12.86
2019-05-02T17:53:41.085Z,12.84
2019-05-02T17:56:13.112Z,12.85
2019-05-02T17:58:47.433Z,12.81
2019-05-02T18:01:19.107Z,12.77
2019-05-02T18:03:49.051Z,12.75
2019-05-02T18:06:30.794Z,12.73
2019-05-02T18:08:55.119Z,12.70
2019-05-02T18:11:22.997Z,12.63
2019-05-02T18:13:52.914Z,12.64
2019-05-02T18:16:23.274Z,12.66
2019-05-02T18:18:53.250Z,12.63
2019-05-02T18:21:26.908Z,12.58
2019-05-02T18:23:57.285Z,12.49
2019-05-02T18:26:27.965Z,12.42
2019-05-02T18:29:02.760Z,12.42
2019-05-02T18:31:34.814Z,12.28
2019-05-02T18:34:03.646Z,12.41
2019-05-02T18:36:33.627Z,12.41
2019-05-02T18:39:05.363Z,12.45
2019-05-02T18:41:41.728Z,12.45
2019-05-02T18:44:09.226Z,12.48
2019-05-02T18:46:41.613Z,12.37
2019-05-02T18:49:12.350Z,12.17
2019-05-02T18:51:42.436Z,11.94
2019-05-02T18:54:12.532Z,11.76
2019-05-02T18:56:49.537Z,11.66
2019-05-02T18:59:19.781Z,11.56
2019-05-02T19:01:47.404Z,11.46
2019-05-02T19:04:18.755Z,11.37
2019-05-02T19:06:48.673Z,11.35
2019-05-02T19:09:24.918Z,11.11
2019-05-02T19:11:52.254Z,11.29
2019-05-02T19:14:25.951Z,11.27
2019-05-02T19:16:58.061Z,11.21
2019-05-02T19:19:27.318Z,11.19
2019-05-02T19:21:58.365Z,11.21
2019-05-02T19:24:32.917Z,11.26
2019-05-02T19:27:02.086Z,11.24
2019-05-02T19:29:32.559Z,11.26
2019-05-02T19:32:02.596Z,11.23
2019-05-02T19:34:33.415Z,11.27
2019-05-02T19:37:04.654Z,11.24
2019-05-02T19:39:39.105Z,11.25
2019-05-02T19:42:07.770Z,11.25
2019-05-02T19:44:37.810Z,11.28
2019-05-02T19:47:15.684Z,11.30
2019-05-02T19:49:42.553Z,11.30
2019-05-02T19:52:12.893Z,11.27
2019-05-02T19:54:43.858Z,11.28
2019-05-02T19:57:17.132Z,11.32
2019-05-02T19:59:46.628Z,11.32
2019-05-02T20:02:16.639Z,11.30
2019-05-02T20:04:46.758Z,11.30
2019-05-02T20:07:17.088Z,11.31
2019-05-02T20:09:48.511Z,11.33
2019-05-02T20:12:18.540Z,11.33
2019-05-02T20:14:49.485Z,11.27
2019-05-02T20:17:22.159Z,11.20
2019-05-02T20:19:57.888Z,11.16
2019-05-02T20:22:26.125Z,11.11
2019-05-02T20:25:00.239Z,11.04
2019-05-02T20:27:28.907Z,11.02
2019-05-02T20:29:58.973Z,10.99
2019-05-02T20:32:28.862Z,10.97
2019-05-02T20:34:59.102Z,10.94
2019-05-02T20:37:29.377Z,10.87
2019-05-02T20:39:59.324Z,10.82
2019-05-02T20:42:32.070Z,10.68
2019-05-02T20:45:02.399Z,10.60
2019-05-02T20:47:33.612Z,10.53
2019-05-02T20:50:05.923Z,10.35
2019-05-02T20:52:35.540Z,10.25
2019-05-02T20:55:06.333Z,10.15
2019-05-02T20:57:36.187Z,10.07
2019-05-02T21:00:07.564Z,9.97
2019-05-02T21:02:39.358Z,9.88
2019-05-02T21:05:18.746Z,9.83
2019-05-02T21:08:01.787Z,9.72
2019-05-02T21:10:34.578Z,9.64
2019-05-02T21:13:04.760Z,9.58
2019-05-02T21:15:34.763Z,9.48
2019-05-02T21:18:04.727Z,9.39
2019-05-02T21:20:34.734Z,9.38
2019-05-02T21:23:04.956Z,9.34
2019-05-02T21:25:35.322Z,9.28
2019-05-02T21:28:05.707Z,9.25
2019-05-02T21:30:35.704Z,9.19
2019-05-02T21:33:05.699Z,9.17
2019-05-02T21:35:35.670Z,9.10
2019-05-02T21:38:05.393Z,9.05
2019-05-02T21:40:35.265Z,9.01
2019-05-02T21:43:05.231Z,8.98
2019-05-02T21:45:35.213Z,8.92
2019-05-02T21:48:05.061Z,8.88
2019-05-02T21:50:40.458Z,8.83
2019-05-02T21:53:35.256Z,8.80
2019-05-02T21:56:17.441Z,8.77
2019-05-02T21:59:04.353Z,8.73
2019-05-02T22:01:35.936Z,8.70
2019-05-02T22:04:06.147Z,8.69
2019-05-02T22:06:36.174Z,8.69
2019-05-02T22:09:08.545Z,8.74
2019-05-02T22:11:39.129Z,8.82
2019-05-02T22:14:09.380Z,8.94
2019-05-02T22:16:39.184Z,9.03
2019-05-02T22:19:09.502Z,9.09
2019-05-02T22:21:39.468Z,9.13
2019-05-02T22:24:13.690Z,9.19
2019-05-02T22:26:43.353Z,9.23
2019-05-02T22:29:12.697Z,9.22
2019-05-02T22:31:43.087Z,9.23
2019-05-02T22:34:13.730Z,9.27
2019-05-02T22:36:44.222Z,9.30
2019-05-02T22:39:38.565Z,9.34
2019-05-02T22:42:08.569Z,9.35
2019-05-02T22:44:38.906Z,9.28
2019-05-02T22:47:09.152Z,9.29
2019-05-02T22:49:38.997Z,9.30
2019-05-02T22:52:09.471Z,9.35
2019-05-02T22:54:41.565Z,9.37
2019-05-02T22:57:11.580Z,9.39
2019-05-02T22:59:43.028Z,9.44
2019-05-02T23:02:13.349Z,9.44
2019-05-02T23:04:44.661Z,9.42
2019-05-02T23:07:15.146Z,9.39
2019-05-02T23:09:47.280Z,9.36
2019-05-02T23:12:18.493Z,9.34
2019-05-02T23:14:48.436Z,9.28
2019-05-02T23:17:18.549Z,9.27
2019-05-02T23:19:48.439Z,9.23
2019-05-02T23:22:18.655Z,9.22
2019-05-02T23:25:11.662Z,9.21
2019-05-02T23:27:45.571Z,9.20
2019-05-02T23:30:17.959Z,9.15
2019-05-02T23:32:47.745Z,9.15
2019-05-02T23:35:17.636Z,9.13
2019-05-02T23:37:47.468Z,9.11
2019-05-02T23:40:17.711Z,9.12
2019-05-02T23:42:48.099Z,9.11
2019-05-02T23:45:18.327Z,9.09
2019-05-02T23:47:48.216Z,9.09
2019-05-02T23:50:18.159Z,9.09
2019-05-02T23:52:47.911Z,9.04
2019-05-02T23:55:17.807Z,9.02
2019-05-02T23:57:47.803Z,9.00
